sensor_id;sensor_type;location;lat;lon;timestamp;P1;durP1;ratioP1;P2;durP2;ratioP2
55800;SDS011;41730;51.960;20.158;2023-03-01T00:01:39;103.30;;;41.30;;
55800;SDS011;41730;51.960;20.158;2023-03-01T00:04:12;89.60;;;37.80;;
55800;SDS011;41730;51.960;20.158;2023-03-01T00:06:44;94.40;;;37.70;;
55800;SDS011;41730;51.960;20.158;2023-03-01T00:09:16;89.70;;;36.40;;
55800;SDS011;41730;51.960;20.158;2023-03-01T00:11:47;95.20;;;37.90;;
55800;SDS011;41730;51.960;20.158;2023-03-01T00:14:19;91.70;;;37.30;;
55800;SDS011;41730;51.960;20.158;2023-03-01T00:16:52;91.40;;;38.20;;
55800;SDS011;41730;51.960;20.158;2023-03-01T00:19:24;93.00;;;37.40;;
55800;SDS011;41730;51.960;20.158;2023-03-01T00:21:56;79.40;;;36.60;;
55800;SDS011;41730;51.960;20.158;2023-03-01T00:24:28;84.80;;;35.30;;
55800;SDS011;41730;51.960;20.158;2023-03-01T00:26:59;85.60;;;34.90;;
55800;SDS011;41730;51.960;20.158;2023-03-01T00:29:31;82.40;;;34.90;;
55800;SDS011;41730;51.960;20.158;2023-03-01T00:32:04;92.40;;;37.80;;
55800;SDS011;41730;51.960;20.158;2023-03-01T00:34:36;93.80;;;37.50;;
55800;SDS011;41730;51.960;20.158;2023-03-01T00:37:08;97.60;;;37.90;;
55800;SDS011;41730;51.960;20.158;2023-03-01T00:39:40;97.50;;;38.20;;
55800;SDS011;41730;51.960;20.158;2023-03-01T00:42:13;98.90;;;38.30;;
55800;SDS011;41730;51.960;20.158;2023-03-01T00:44:45;89.00;;;37.10;;
55800;SDS011;41730;51.960;20.158;2023-03-01T00:47:18;89.70;;;38.20;;
55800;SDS011;41730;51.960;20.158;2023-03-01T00:49:50;96.60;;;39.10;;
55800;SDS011;41730;51.960;20.158;2023-03-01T00:52:22;97.90;;;40.00;;
55800;SDS011;41730;51.960;20.158;2023-03-01T00:54:55;94.60;;;38.80;;
55800;SDS011;41730;51.960;20.158;2023-03-01T00:57:27;91.00;;;36.20;;
55800;SDS011;41730;51.960;20.158;2023-03-01T00:59:59;98.60;;;39.60;;
55800;SDS011;41730;51.960;20.158;2023-03-01T01:02:33;86.40;;;37.70;;
55800;SDS011;41730;51.960;20.158;2023-03-01T01:05:06;98.90;;;40.20;;
55800;SDS011;41730;51.960;20.158;2023-03-01T01:07:39;89.60;;;38.90;;
55800;SDS011;41730;51.960;20.158;2023-03-01T01:10:12;95.10;;;38.40;;
55800;SDS011;41730;51.960;20.158;2023-03-01T01:12:46;89.20;;;38.50;;
55800;SDS011;41730;51.960;20.158;2023-03-01T01:15:18;84.20;;;36.50;;
55800;SDS011;41730;51.960;20.158;2023-03-01T01:17:49;85.00;;;36.40;;
55800;SDS011;41730;51.960;20.158;2023-03-01T01:20:21;76.20;;;34.70;;
55800;SDS011;41730;51.960;20.158;2023-03-01T01:22:53;80.80;;;35.50;;
55800;SDS011;41730;51.960;20.158;2023-03-01T01:25:25;88.30;;;38.20;;
55800;SDS011;41730;51.960;20.158;2023-03-01T01:27:58;90.10;;;38.80;;
55800;SDS011;41730;51.960;20.158;2023-03-01T01:30:30;90.00;;;38.40;;
55800;SDS011;41730;51.960;20.158;2023-03-01T01:33:03;76.60;;;35.20;;
55800;SDS011;41730;51.960;20.158;2023-03-01T01:35:36;86.50;;;36.20;;
55800;SDS011;41730;51.960;20.158;2023-03-01T01:38:08;73.90;;;35.50;;
55800;SDS011;41730;51.960;20.158;2023-03-01T01:40:44;77.00;;;34.50;;
55800;SDS011;41730;51.960;20.158;2023-03-01T01:43:20;72.40;;;33.70;;
55800;SDS011;41730;51.960;20.158;2023-03-01T01:45:54;71.60;;;33.30;;
55800;SDS011;41730;51.960;20.158;2023-03-01T01:48:32;71.20;;;30.50;;
55800;SDS011;41730;51.960;20.158;2023-03-01T01:51:11;69.50;;;31.40;;
55800;SDS011;41730;51.960;20.158;2023-03-01T01:53:48;64.00;;;29.20;;
55800;SDS011;41730;51.960;20.158;2023-03-01T01:56:25;69.80;;;30.40;;
55800;SDS011;41730;51.960;20.158;2023-03-01T01:58:59;65.50;;;29.80;;
55800;SDS011;41730;51.960;20.158;2023-03-01T02:01:33;60.50;;;28.50;;
55800;SDS011;41730;51.960;20.158;2023-03-01T02:04:05;64.70;;;28.60;;
55800;SDS011;41730;51.960;20.158;2023-03-01T02:06:38;57.60;;;27.30;;
55800;SDS011;41730;51.960;20.158;2023-03-01T02:09:14;57.00;;;27.40;;
55800;SDS011;41730;51.960;20.158;2023-03-01T02:11:48;54.70;;;27.00;;
55800;SDS011;41730;51.960;20.158;2023-03-01T02:14:21;55.60;;;28.30;;
55800;SDS011;41730;51.960;20.158;2023-03-01T02:16:53;55.40;;;26.00;;
55800;SDS011;41730;51.960;20.158;2023-03-01T02:19:30;63.60;;;27.50;;
55800;SDS011;41730;51.960;20.158;2023-03-01T02:22:13;58.20;;;28.00;;
55800;SDS011;41730;51.960;20.158;2023-03-01T02:24:52;56.90;;;27.30;;
55800;SDS011;41730;51.960;20.158;2023-03-01T02:27:35;57.50;;;27.50;;
55800;SDS011;41730;51.960;20.158;2023-03-01T02:30:13;56.60;;;26.40;;
55800;SDS011;41730;51.960;20.158;2023-03-01T02:32:45;63.40;;;28.50;;
55800;SDS011;41730;51.960;20.158;2023-03-01T02:35:18;60.20;;;27.50;;
55800;SDS011;41730;51.960;20.158;2023-03-01T02:37:50;57.90;;;29.40;;
55800;SDS011;41730;51.960;20.158;2023-03-01T02:40:26;58.10;;;27.70;;
55800;SDS011;41730;51.960;20.158;2023-03-01T02:43:03;60.00;;;28.80;;
55800;SDS011;41730;51.960;20.158;2023-03-01T02:45:42;63.50;;;28.00;;
55800;SDS011;41730;51.960;20.158;2023-03-01T02:48:18;63.70;;;30.10;;
55800;SDS011;41730;51.960;20.158;2023-03-01T02:50:55;63.90;;;29.50;;
55800;SDS011;41730;51.960;20.158;2023-03-01T02:53:41;67.40;;;28.60;;
55800;SDS011;41730;51.960;20.158;2023-03-01T02:56:21;54.90;;;27.80;;
55800;SDS011;41730;51.960;20.158;2023-03-01T02:58:53;54.00;;;27.60;;
55800;SDS011;41730;51.960;20.158;2023-03-01T03:01:30;55.10;;;27.80;;
55800;SDS011;41730;51.960;20.158;2023-03-01T03:04:06;53.00;;;26.60;;
55800;SDS011;41730;51.960;20.158;2023-03-01T03:06:41;57.20;;;26.50;;
55800;SDS011;41730;51.960;20.158;2023-03-01T03:09:14;51.20;;;27.20;;
55800;SDS011;41730;51.960;20.158;2023-03-01T03:11:46;50.20;;;25.40;;
55800;SDS011;41730;51.960;20.158;2023-03-01T03:14:18;50.20;;;24.40;;
55800;SDS011;41730;51.960;20.158;2023-03-01T03:16:52;50.70;;;25.60;;
55800;SDS011;41730;51.960;20.158;2023-03-01T03:19:24;53.00;;;26.30;;
55800;SDS011;41730;51.960;20.158;2023-03-01T03:21:58;53.50;;;26.10;;
55800;SDS011;41730;51.960;20.158;2023-03-01T03:24:30;50.90;;;27.70;;
55800;SDS011;41730;51.960;20.158;2023-03-01T03:27:07;52.20;;;27.40;;
55800;SDS011;41730;51.960;20.158;2023-03-01T03:29:39;55.40;;;27.70;;
55800;SDS011;41730;51.960;20.158;2023-03-01T03:32:12;57.10;;;27.00;;
55800;SDS011;41730;51.960;20.158;2023-03-01T03:34:45;56.90;;;27.20;;
55800;SDS011;41730;51.960;20.158;2023-03-01T03:37:17;52.50;;;28.10;;
55800;SDS011;41730;51.960;20.158;2023-03-01T03:40:10;52.00;;;26.00;;
55800;SDS011;41730;51.960;20.158;2023-03-01T03:42:44;51.90;;;27.60;;
55800;SDS011;41730;51.960;20.158;2023-03-01T03:45:16;51.40;;;26.50;;
55800;SDS011;41730;51.960;20.158;2023-03-01T03:47:50;53.50;;;26.20;;
55800;SDS011;41730;51.960;20.158;2023-03-01T03:50:22;47.30;;;24.40;;
55800;SDS011;41730;51.960;20.158;2023-03-01T03:52:53;55.30;;;26.20;;
55800;SDS011;41730;51.960;20.158;2023-03-01T03:55:25;54.70;;;27.40;;
55800;SDS011;41730;51.960;20.158;2023-03-01T03:57:59;47.60;;;25.10;;
55800;SDS011;41730;51.960;20.158;2023-03-01T04:00:35;51.60;;;26.60;;
55800;SDS011;41730;51.960;20.158;2023-03-01T04:03:10;55.40;;;29.10;;
55800;SDS011;41730;51.960;20.158;2023-03-01T04:05:43;51.40;;;27.40;;
55800;SDS011;41730;51.960;20.158;2023-03-01T04:08:18;55.00;;;28.10;;
55800;SDS011;41730;51.960;20.158;2023-03-01T04:10:52;56.00;;;29.30;;
55800;SDS011;41730;51.960;20.158;2023-03-01T04:13:49;62.80;;;31.60;;
55800;SDS011;41730;51.960;20.158;2023-03-01T04:16:23;53.90;;;29.70;;
55800;SDS011;41730;51.960;20.158;2023-03-01T04:18:55;60.10;;;30.10;;
55800;SDS011;41730;51.960;20.158;2023-03-01T04:21:27;54.20;;;28.70;;
55800;SDS011;41730;51.960;20.158;2023-03-01T04:23:59;55.80;;;27.50;;
55800;SDS011;41730;51.960;20.158;2023-03-01T04:26:33;53.60;;;28.00;;
55800;SDS011;41730;51.960;20.158;2023-03-01T04:29:05;54.40;;;29.00;;
55800;SDS011;41730;51.960;20.158;2023-03-01T04:31:41;56.10;;;29.10;;
55800;SDS011;41730;51.960;20.158;2023-03-01T04:34:31;56.50;;;29.00;;
55800;SDS011;41730;51.960;20.158;2023-03-01T04:37:11;56.00;;;29.30;;
55800;SDS011;41730;51.960;20.158;2023-03-01T04:39:45;60.10;;;29.40;;
55800;SDS011;41730;51.960;20.158;2023-03-01T04:42:17;53.80;;;28.30;;
55800;SDS011;41730;51.960;20.158;2023-03-01T04:44:49;59.10;;;29.50;;
55800;SDS011;41730;51.960;20.158;2023-03-01T04:47:21;62.30;;;30.80;;
55800;SDS011;41730;51.960;20.158;2023-03-01T04:49:53;58.30;;;29.70;;
55800;SDS011;41730;51.960;20.158;2023-03-01T04:52:25;55.60;;;29.70;;
55800;SDS011;41730;51.960;20.158;2023-03-01T04:54:57;61.00;;;30.90;;
55800;SDS011;41730;51.960;20.158;2023-03-01T04:57:29;60.30;;;31.90;;
55800;SDS011;41730;51.960;20.158;2023-03-01T05:00:02;63.60;;;30.90;;
55800;SDS011;41730;51.960;20.158;2023-03-01T05:02:49;58.50;;;29.40;;
55800;SDS011;41730;51.960;20.158;2023-03-01T05:07:54;61.30;;;27.70;;
55800;SDS011;41730;51.960;20.158;2023-03-01T05:10:28;56.30;;;29.40;;
55800;SDS011;41730;51.960;20.158;2023-03-01T05:13:03;66.20;;;29.70;;
55800;SDS011;41730;51.960;20.158;2023-03-01T05:15:35;64.20;;;29.50;;
55800;SDS011;41730;51.960;20.158;2023-03-01T05:18:07;59.80;;;30.10;;
55800;SDS011;41730;51.960;20.158;2023-03-01T05:20:39;72.00;;;34.80;;
55800;SDS011;41730;51.960;20.158;2023-03-01T05:23:12;69.40;;;34.40;;
55800;SDS011;41730;51.960;20.158;2023-03-01T05:25:44;58.10;;;32.20;;
55800;SDS011;41730;51.960;20.158;2023-03-01T05:28:18;68.40;;;33.20;;
55800;SDS011;41730;51.960;20.158;2023-03-01T05:30:51;66.10;;;33.10;;
55800;SDS011;41730;51.960;20.158;2023-03-01T05:33:24;64.50;;;31.60;;
55800;SDS011;41730;51.960;20.158;2023-03-01T05:35:59;61.40;;;31.60;;
55800;SDS011;41730;51.960;20.158;2023-03-01T05:38:31;62.10;;;31.60;;
55800;SDS011;41730;51.960;20.158;2023-03-01T05:41:03;62.90;;;31.90;;
55800;SDS011;41730;51.960;20.158;2023-03-01T05:43:43;58.60;;;30.10;;
55800;SDS011;41730;51.960;20.158;2023-03-01T05:46:15;63.90;;;31.10;;
55800;SDS011;41730;51.960;20.158;2023-03-01T05:48:47;66.60;;;30.80;;
55800;SDS011;41730;51.960;20.158;2023-03-01T05:51:19;59.60;;;28.90;;
55800;SDS011;41730;51.960;20.158;2023-03-01T05:53:51;60.20;;;27.60;;
55800;SDS011;41730;51.960;20.158;2023-03-01T05:56:23;51.40;;;26.10;;
55800;SDS011;41730;51.960;20.158;2023-03-01T05:58:55;48.80;;;24.30;;
55800;SDS011;41730;51.960;20.158;2023-03-01T06:01:27;47.00;;;23.60;;
55800;SDS011;41730;51.960;20.158;2023-03-01T06:04:00;44.50;;;22.70;;
55800;SDS011;41730;51.960;20.158;2023-03-01T06:06:34;44.60;;;23.40;;
55800;SDS011;41730;51.960;20.158;2023-03-01T06:09:06;45.80;;;23.10;;
55800;SDS011;41730;51.960;20.158;2023-03-01T06:11:38;44.40;;;21.80;;
55800;SDS011;41730;51.960;20.158;2023-03-01T06:14:10;43.30;;;21.90;;
55800;SDS011;41730;51.960;20.158;2023-03-01T06:16:42;44.30;;;21.40;;
55800;SDS011;41730;51.960;20.158;2023-03-01T06:19:14;45.60;;;22.00;;
55800;SDS011;41730;51.960;20.158;2023-03-01T06:21:46;41.40;;;21.00;;
55800;SDS011;41730;51.960;20.158;2023-03-01T06:24:20;51.80;;;21.00;;
55800;SDS011;41730;51.960;20.158;2023-03-01T06:26:53;42.50;;;21.00;;
55800;SDS011;41730;51.960;20.158;2023-03-01T06:29:26;39.80;;;20.10;;
55800;SDS011;41730;51.960;20.158;2023-03-01T06:31:58;42.40;;;20.80;;
55800;SDS011;41730;51.960;20.158;2023-03-01T06:34:31;39.70;;;20.00;;
55800;SDS011;41730;51.960;20.158;2023-03-01T06:37:03;39.80;;;20.00;;
55800;SDS011;41730;51.960;20.158;2023-03-01T06:39:36;37.60;;;19.60;;
55800;SDS011;41730;51.960;20.158;2023-03-01T06:42:08;32.00;;;18.30;;
55800;SDS011;41730;51.960;20.158;2023-03-01T06:44:41;40.40;;;20.30;;
55800;SDS011;41730;51.960;20.158;2023-03-01T06:47:14;37.00;;;19.70;;
55800;SDS011;41730;51.960;20.158;2023-03-01T06:49:46;42.50;;;20.70;;
55800;SDS011;41730;51.960;20.158;2023-03-01T06:52:18;41.80;;;19.90;;
55800;SDS011;41730;51.960;20.158;2023-03-01T06:54:50;39.70;;;19.40;;
55800;SDS011;41730;51.960;20.158;2023-03-01T06:57:22;36.70;;;19.10;;
55800;SDS011;41730;51.960;20.158;2023-03-01T06:59:54;34.70;;;19.00;;
55800;SDS011;41730;51.960;20.158;2023-03-01T07:02:29;39.90;;;18.30;;
55800;SDS011;41730;51.960;20.158;2023-03-01T07:05:03;42.40;;;19.30;;
55800;SDS011;41730;51.960;20.158;2023-03-01T07:07:37;44.10;;;18.60;;
55800;SDS011;41730;51.960;20.158;2023-03-01T07:10:10;34.90;;;19.40;;
55800;SDS011;41730;51.960;20.158;2023-03-01T07:12:42;38.20;;;21.20;;
55800;SDS011;41730;51.960;20.158;2023-03-01T07:15:16;44.30;;;22.40;;
55800;SDS011;41730;51.960;20.158;2023-03-01T07:17:49;38.90;;;20.60;;
55800;SDS011;41730;51.960;20.158;2023-03-01T07:20:23;36.50;;;18.80;;
55800;SDS011;41730;51.960;20.158;2023-03-01T07:22:56;33.00;;;18.20;;
55800;SDS011;41730;51.960;20.158;2023-03-01T07:25:29;34.10;;;18.10;;
55800;SDS011;41730;51.960;20.158;2023-03-01T07:28:02;36.20;;;18.60;;
55800;SDS011;41730;51.960;20.158;2023-03-01T07:30:35;37.30;;;20.00;;
55800;SDS011;41730;51.960;20.158;2023-03-01T07:33:09;44.20;;;25.30;;
55800;SDS011;41730;51.960;20.158;2023-03-01T07:35:41;35.40;;;20.20;;
55800;SDS011;41730;51.960;20.158;2023-03-01T07:38:14;36.50;;;19.80;;
55800;SDS011;41730;51.960;20.158;2023-03-01T07:40:46;30.80;;;16.90;;
55800;SDS011;41730;51.960;20.158;2023-03-01T07:43:19;36.70;;;19.20;;
55800;SDS011;41730;51.960;20.158;2023-03-01T07:45:53;39.40;;;18.40;;
55800;SDS011;41730;51.960;20.158;2023-03-01T07:48:27;30.90;;;17.20;;
55800;SDS011;41730;51.960;20.158;2023-03-01T07:51:02;39.40;;;19.40;;
55800;SDS011;41730;51.960;20.158;2023-03-01T07:53:36;31.50;;;18.00;;
55800;SDS011;41730;51.960;20.158;2023-03-01T07:56:10;37.90;;;19.50;;
55800;SDS011;41730;51.960;20.158;2023-03-01T07:58:46;35.90;;;17.20;;
55800;SDS011;41730;51.960;20.158;2023-03-01T08:01:19;37.40;;;18.20;;
55800;SDS011;41730;51.960;20.158;2023-03-01T08:03:52;35.00;;;18.10;;
55800;SDS011;41730;51.960;20.158;2023-03-01T08:06:25;34.00;;;17.40;;
55800;SDS011;41730;51.960;20.158;2023-03-01T08:08:58;35.00;;;17.20;;
55800;SDS011;41730;51.960;20.158;2023-03-01T08:11:31;33.40;;;17.90;;
55800;SDS011;41730;51.960;20.158;2023-03-01T08:14:07;32.50;;;16.80;;
55800;SDS011;41730;51.960;20.158;2023-03-01T08:16:40;37.80;;;16.50;;
55800;SDS011;41730;51.960;20.158;2023-03-01T08:19:15;29.50;;;16.00;;
55800;SDS011;41730;51.960;20.158;2023-03-01T08:21:49;36.90;;;16.50;;
55800;SDS011;41730;51.960;20.158;2023-03-01T08:24:23;32.20;;;16.70;;
55800;SDS011;41730;51.960;20.158;2023-03-01T08:26:56;29.80;;;15.40;;
55800;SDS011;41730;51.960;20.158;2023-03-01T08:32:02;24.90;;;13.90;;
55800;SDS011;41730;51.960;20.158;2023-03-01T08:34:35;30.30;;;14.40;;
55800;SDS011;41730;51.960;20.158;2023-03-01T08:37:09;27.80;;;13.40;;
55800;SDS011;41730;51.960;20.158;2023-03-01T08:39:42;26.00;;;14.20;;
55800;SDS011;41730;51.960;20.158;2023-03-01T08:42:15;25.10;;;13.00;;
55800;SDS011;41730;51.960;20.158;2023-03-01T08:44:48;25.80;;;12.70;;
55800;SDS011;41730;51.960;20.158;2023-03-01T08:47:20;20.60;;;11.30;;
55800;SDS011;41730;51.960;20.158;2023-03-01T08:49:53;23.80;;;12.20;;
55800;SDS011;41730;51.960;20.158;2023-03-01T08:52:27;20.70;;;10.90;;
55800;SDS011;41730;51.960;20.158;2023-03-01T08:55:00;22.30;;;11.90;;
55800;SDS011;41730;51.960;20.158;2023-03-01T08:57:36;26.00;;;13.40;;
55800;SDS011;41730;51.960;20.158;2023-03-01T09:00:10;23.80;;;12.30;;
55800;SDS011;41730;51.960;20.158;2023-03-01T09:02:47;20.00;;;10.10;;
55800;SDS011;41730;51.960;20.158;2023-03-01T09:05:20;25.40;;;12.00;;
55800;SDS011;41730;51.960;20.158;2023-03-01T09:07:55;22.80;;;11.70;;
55800;SDS011;41730;51.960;20.158;2023-03-01T09:10:28;23.30;;;11.70;;
55800;SDS011;41730;51.960;20.158;2023-03-01T09:13:01;20.70;;;10.90;;
55800;SDS011;41730;51.960;20.158;2023-03-01T09:15:33;20.90;;;10.60;;
55800;SDS011;41730;51.960;20.158;2023-03-01T09:18:07;20.30;;;11.40;;
55800;SDS011;41730;51.960;20.158;2023-03-01T09:20:40;23.00;;;11.20;;
55800;SDS011;41730;51.960;20.158;2023-03-01T09:23:12;19.80;;;11.20;;
55800;SDS011;41730;51.960;20.158;2023-03-01T09:25:44;21.60;;;10.70;;
55800;SDS011;41730;51.960;20.158;2023-03-01T09:28:18;25.00;;;11.60;;
55800;SDS011;41730;51.960;20.158;2023-03-01T09:30:59;21.20;;;11.10;;
55800;SDS011;41730;51.960;20.158;2023-03-01T09:33:33;19.30;;;10.40;;
55800;SDS011;41730;51.960;20.158;2023-03-01T09:36:11;22.20;;;11.10;;
55800;SDS011;41730;51.960;20.158;2023-03-01T09:38:45;18.40;;;9.50;;
55800;SDS011;41730;51.960;20.158;2023-03-01T09:41:21;18.20;;;9.60;;
55800;SDS011;41730;51.960;20.158;2023-03-01T09:44:08;19.60;;;10.50;;
55800;SDS011;41730;51.960;20.158;2023-03-01T09:46:47;15.70;;;9.40;;
55800;SDS011;41730;51.960;20.158;2023-03-01T09:49:22;16.10;;;8.40;;
55800;SDS011;41730;51.960;20.158;2023-03-01T09:51:57;18.80;;;9.50;;
55800;SDS011;41730;51.960;20.158;2023-03-01T09:54:43;19.70;;;9.00;;
55800;SDS011;41730;51.960;20.158;2023-03-01T09:57:19;19.60;;;10.50;;
55800;SDS011;41730;51.960;20.158;2023-03-01T10:00:07;17.10;;;8.50;;
55800;SDS011;41730;51.960;20.158;2023-03-01T10:02:49;20.10;;;9.10;;
55800;SDS011;41730;51.960;20.158;2023-03-01T10:05:31;17.10;;;9.40;;
55800;SDS011;41730;51.960;20.158;2023-03-01T10:11:20;16.90;;;9.90;;
55800;SDS011;41730;51.960;20.158;2023-03-01T10:13:58;13.80;;;7.20;;
55800;SDS011;41730;51.960;20.158;2023-03-01T10:16:37;18.40;;;8.80;;
55800;SDS011;41730;51.960;20.158;2023-03-01T10:19:17;21.90;;;9.40;;
55800;SDS011;41730;51.960;20.158;2023-03-01T10:21:56;22.10;;;10.90;;
55800;SDS011;41730;51.960;20.158;2023-03-01T10:24:34;20.30;;;8.70;;
55800;SDS011;41730;51.960;20.158;2023-03-01T10:29:44;16.60;;;8.30;;
55800;SDS011;41730;51.960;20.158;2023-03-01T10:32:20;14.10;;;7.20;;
55800;SDS011;41730;51.960;20.158;2023-03-01T10:34:53;18.40;;;8.30;;
55800;SDS011;41730;51.960;20.158;2023-03-01T10:37:25;14.70;;;7.30;;
55800;SDS011;41730;51.960;20.158;2023-03-01T10:40:00;12.90;;;7.00;;
55800;SDS011;41730;51.960;20.158;2023-03-01T10:42:38;13.30;;;6.60;;
55800;SDS011;41730;51.960;20.158;2023-03-01T10:45:22;14.40;;;6.70;;
55800;SDS011;41730;51.960;20.158;2023-03-01T10:48:13;12.70;;;6.00;;
55800;SDS011;41730;51.960;20.158;2023-03-01T10:50:48;11.30;;;6.20;;
55800;SDS011;41730;51.960;20.158;2023-03-01T10:53:35;13.40;;;5.90;;
55800;SDS011;41730;51.960;20.158;2023-03-01T10:56:11;11.90;;;6.30;;
55800;SDS011;41730;51.960;20.158;2023-03-01T10:58:56;11.50;;;6.60;;
55800;SDS011;41730;51.960;20.158;2023-03-01T11:01:30;12.90;;;6.50;;
55800;SDS011;41730;51.960;20.158;2023-03-01T11:04:12;13.30;;;5.40;;
55800;SDS011;41730;51.960;20.158;2023-03-01T11:06:46;14.00;;;6.30;;
55800;SDS011;41730;51.960;20.158;2023-03-01T11:09:33;12.10;;;5.80;;
55800;SDS011;41730;51.960;20.158;2023-03-01T11:12:11;12.20;;;6.20;;
55800;SDS011;41730;51.960;20.158;2023-03-01T11:14:50;11.40;;;5.40;;
55800;SDS011;41730;51.960;20.158;2023-03-01T11:17:26;16.50;;;6.90;;
55800;SDS011;41730;51.960;20.158;2023-03-01T11:20:23;11.00;;;5.40;;
55800;SDS011;41730;51.960;20.158;2023-03-01T11:23:01;13.40;;;6.00;;
55800;SDS011;41730;51.960;20.158;2023-03-01T11:25:39;12.00;;;6.00;;
55800;SDS011;41730;51.960;20.158;2023-03-01T11:28:14;11.10;;;6.30;;
55800;SDS011;41730;51.960;20.158;2023-03-01T11:30:51;11.70;;;5.70;;
55800;SDS011;41730;51.960;20.158;2023-03-01T11:33:37;12.80;;;4.90;;
55800;SDS011;41730;51.960;20.158;2023-03-01T11:36:16;11.90;;;5.30;;
55800;SDS011;41730;51.960;20.158;2023-03-01T11:38:54;10.20;;;5.50;;
55800;SDS011;41730;51.960;20.158;2023-03-01T11:41:34;10.40;;;5.30;;
55800;SDS011;41730;51.960;20.158;2023-03-01T11:44:14;10.70;;;5.10;;
55800;SDS011;41730;51.960;20.158;2023-03-01T11:46:57;10.50;;;5.00;;
55800;SDS011;41730;51.960;20.158;2023-03-01T11:49:57;12.00;;;5.80;;
55800;SDS011;41730;51.960;20.158;2023-03-01T11:52:42;11.80;;;5.40;;
55800;SDS011;41730;51.960;20.158;2023-03-01T11:58:29;11.50;;;5.10;;
55800;SDS011;41730;51.960;20.158;2023-03-01T12:01:17;10.60;;;5.40;;
55800;SDS011;41730;51.960;20.158;2023-03-01T12:04:22;10.80;;;5.30;;
55800;SDS011;41730;51.960;20.158;2023-03-01T12:07:06;9.70;;;5.40;;
55800;SDS011;41730;51.960;20.158;2023-03-01T12:09:51;11.70;;;6.00;;
55800;SDS011;41730;51.960;20.158;2023-03-01T12:12:40;10.30;;;5.10;;
55800;SDS011;41730;51.960;20.158;2023-03-01T12:15:31;12.40;;;6.20;;
55800;SDS011;41730;51.960;20.158;2023-03-01T12:18:22;14.70;;;6.60;;
55800;SDS011;41730;51.960;20.158;2023-03-01T12:21:26;13.90;;;6.10;;
55800;SDS011;41730;51.960;20.158;2023-03-01T12:30:15;10.00;;;5.30;;
55800;SDS011;41730;51.960;20.158;2023-03-01T12:32:58;11.00;;;5.50;;
55800;SDS011;41730;51.960;20.158;2023-03-01T12:35:54;12.40;;;5.40;;
55800;SDS011;41730;51.960;20.158;2023-03-01T12:38:42;11.00;;;5.50;;
55800;SDS011;41730;51.960;20.158;2023-03-01T12:41:34;12.50;;;5.90;;
55800;SDS011;41730;51.960;20.158;2023-03-01T12:44:27;12.70;;;6.70;;
55800;SDS011;41730;51.960;20.158;2023-03-01T12:47:14;14.60;;;6.50;;
55800;SDS011;41730;51.960;20.158;2023-03-01T12:50:01;13.50;;;7.10;;
55800;SDS011;41730;51.960;20.158;2023-03-01T12:52:42;14.50;;;7.00;;
55800;SDS011;41730;51.960;20.158;2023-03-01T12:55:22;21.40;;;9.40;;
55800;SDS011;41730;51.960;20.158;2023-03-01T12:58:05;17.40;;;8.20;;
55800;SDS011;41730;51.960;20.158;2023-03-01T13:00:52;16.10;;;7.40;;
55800;SDS011;41730;51.960;20.158;2023-03-01T13:03:35;16.90;;;7.60;;
55800;SDS011;41730;51.960;20.158;2023-03-01T13:06:18;26.80;;;8.40;;
55800;SDS011;41730;51.960;20.158;2023-03-01T13:09:13;19.10;;;8.70;;
55800;SDS011;41730;51.960;20.158;2023-03-01T13:11:54;11.60;;;6.90;;
55800;SDS011;41730;51.960;20.158;2023-03-01T13:14:38;15.10;;;7.20;;
55800;SDS011;41730;51.960;20.158;2023-03-01T13:17:39;13.60;;;7.60;;
55800;SDS011;41730;51.960;20.158;2023-03-01T13:20:16;14.50;;;6.90;;
55800;SDS011;41730;51.960;20.158;2023-03-01T13:22:59;14.10;;;7.90;;
55800;SDS011;41730;51.960;20.158;2023-03-01T13:25:44;14.60;;;7.10;;
55800;SDS011;41730;51.960;20.158;2023-03-01T13:37:33;14.20;;;6.90;;
55800;SDS011;41730;51.960;20.158;2023-03-01T13:43:30;17.00;;;8.00;;
55800;SDS011;41730;51.960;20.158;2023-03-01T13:46:09;13.20;;;6.70;;
55800;SDS011;41730;51.960;20.158;2023-03-01T13:48:47;13.60;;;7.30;;
55800;SDS011;41730;51.960;20.158;2023-03-01T13:51:23;12.40;;;6.90;;
55800;SDS011;41730;51.960;20.158;2023-03-01T13:53:59;13.80;;;7.50;;
55800;SDS011;41730;51.960;20.158;2023-03-01T13:56:33;14.90;;;7.30;;
55800;SDS011;41730;51.960;20.158;2023-03-01T13:59:12;15.60;;;7.10;;
55800;SDS011;41730;51.960;20.158;2023-03-01T14:01:51;15.10;;;8.00;;
55800;SDS011;41730;51.960;20.158;2023-03-01T14:04:24;16.30;;;7.40;;
55800;SDS011;41730;51.960;20.158;2023-03-01T14:07:13;14.60;;;7.50;;
55800;SDS011;41730;51.960;20.158;2023-03-01T14:09:51;14.30;;;7.40;;
55800;SDS011;41730;51.960;20.158;2023-03-01T14:15:03;14.30;;;6.30;;
55800;SDS011;41730;51.960;20.158;2023-03-01T14:17:51;13.80;;;6.90;;
55800;SDS011;41730;51.960;20.158;2023-03-01T14:20:29;13.70;;;7.40;;
55800;SDS011;41730;51.960;20.158;2023-03-01T14:23:10;14.80;;;7.50;;
55800;SDS011;41730;51.960;20.158;2023-03-01T14:25:48;12.40;;;6.10;;
55800;SDS011;41730;51.960;20.158;2023-03-01T14:28:21;12.20;;;6.70;;
55800;SDS011;41730;51.960;20.158;2023-03-01T14:30:57;13.20;;;6.60;;
55800;SDS011;41730;51.960;20.158;2023-03-01T14:33:31;13.90;;;7.20;;
55800;SDS011;41730;51.960;20.158;2023-03-01T14:36:06;16.00;;;8.50;;
55800;SDS011;41730;51.960;20.158;2023-03-01T14:38:42;15.40;;;6.50;;
55800;SDS011;41730;51.960;20.158;2023-03-01T14:41:15;13.40;;;6.60;;
55800;SDS011;41730;51.960;20.158;2023-03-01T14:43:49;13.80;;;6.70;;
55800;SDS011;41730;51.960;20.158;2023-03-01T14:48:57;14.80;;;7.20;;
55800;SDS011;41730;51.960;20.158;2023-03-01T14:51:37;16.00;;;7.80;;
55800;SDS011;41730;51.960;20.158;2023-03-01T14:54:20;14.30;;;7.00;;
55800;SDS011;41730;51.960;20.158;2023-03-01T14:56:57;14.30;;;7.20;;
55800;SDS011;41730;51.960;20.158;2023-03-01T14:59:32;17.20;;;7.50;;
55800;SDS011;41730;51.960;20.158;2023-03-01T15:02:08;17.30;;;7.70;;
55800;SDS011;41730;51.960;20.158;2023-03-01T15:04:48;14.20;;;7.80;;
55800;SDS011;41730;51.960;20.158;2023-03-01T15:07:21;16.60;;;9.40;;
55800;SDS011;41730;51.960;20.158;2023-03-01T15:09:56;17.90;;;9.00;;
55800;SDS011;41730;51.960;20.158;2023-03-01T15:12:37;16.90;;;9.90;;
55800;SDS011;41730;51.960;20.158;2023-03-01T15:15:30;15.60;;;8.90;;
55800;SDS011;41730;51.960;20.158;2023-03-01T15:18:11;15.50;;;8.10;;
55800;SDS011;41730;51.960;20.158;2023-03-01T15:20:46;21.70;;;8.60;;
55800;SDS011;41730;51.960;20.158;2023-03-01T15:23:21;18.90;;;9.00;;
55800;SDS011;41730;51.960;20.158;2023-03-01T15:25:55;18.70;;;9.60;;
55800;SDS011;41730;51.960;20.158;2023-03-01T15:28:29;18.20;;;8.50;;
55800;SDS011;41730;51.960;20.158;2023-03-01T15:31:04;15.80;;;7.60;;
55800;SDS011;41730;51.960;20.158;2023-03-01T15:33:48;17.30;;;8.90;;
55800;SDS011;41730;51.960;20.158;2023-03-01T15:36:33;17.60;;;8.90;;
55800;SDS011;41730;51.960;20.158;2023-03-01T15:39:32;18.20;;;9.50;;
55800;SDS011;41730;51.960;20.158;2023-03-01T15:42:08;17.90;;;9.70;;
55800;SDS011;41730;51.960;20.158;2023-03-01T15:44:41;17.80;;;9.30;;